Syracuse Hancock International Airport
KSYR : now visible

Airfield :











YOU CAN JOIN US ON...

 
LOGIN :

Register | Disclaimer

   EN    FR    IT 

 









Legend :    VFR   Marginal VFR   IFR   Intensive IFR   Very Intensive IFR
Visi :
Ceiling :
>= 8 km
>= 3000ft
5 to 8 km
1000 to 3000 ft
1500m to 5 km
500 to 1000 ft
800 to 1500m
200 to 500 ft
< 800m
< 200 ft
Symbols :   Thunderstorms  Fog  Heavy snow  Heavy precipitations  Wind > 20 kt






- Airport Elevation : 421 ft
- IATA code : SYR


KSYR - Syracuse Hancock International

CURRENT METAR :
  • 291454Z VRB05KT 10SM OVC020 M04/M09 A3020 RMK AO2 SLP228 60000 T10391089 51012

EXPIRED METARs :
  • 291354Z 34005KT 10SM OVC021 M04/M09 A3019 RMK AO2 SLP224 T10441089
  • 291254Z 00000KT 10SM OVC023 M04/M09 A3016 RMK AO2 SNE21 SLP217 P0000 T10441089

TAF KSYR
Valid from the 29 at 12:00 until the 30 at 12:00 UTC


291120Z 2912/3012 35005KT P6SM OVC025
TEMPO 2912/2914 -SHSN
FM291700 32007KT P6SM SCT035
FM300000 VRB03KT P6SM SKC



MET'MAP, your aeronautical weather chart ! - Copyright ORBIFLY December 2007 - Disclaimer

ORBIFLY MET'MAP TEAM :

Programming & Development : Alexandra Zaïnal
Concept & original design : Baudouin d'Aumeries
Assistance for programming : Marc-Olivier Méhu
Technical & hardware support : Manuel Goepfert

Contact : metmap@orbifly.com




SOURCES & CREDITS :

   NOAA       Earth
Advisory